sensor_id;sensor_type;location;lat;lon;timestamp;pressure;altitude;pressure_sealevel;temperature;humidity
37420;BME280;47344;52.374;4.816;2023-02-18T00:01:01;102126.0;;;10.81;100.0
37420;BME280;47344;52.374;4.816;2023-02-18T00:04:14;102120.0;;;10.85;100.0
37420;BME280;47344;52.374;4.816;2023-02-18T00:05:50;102121.0;;;10.84;100.0
37420;BME280;47344;52.374;4.816;2023-02-18T00:07:27;102124.0;;;10.8;100.0
37420;BME280;47344;52.374;4.816;2023-02-18T00:10:46;102119.0;;;10.89;100.0
37420;BME280;47344;52.374;4.816;2023-02-18T00:12:23;102112.0;;;10.86;100.0
37420;BME280;47344;52.374;4.816;2023-02-18T00:14:01;102110.0;;;10.94;100.0
37420;BME280;47344;52.374;4.816;2023-02-18T00:15:38;102114.0;;;10.93;100.0
37420;BME280;47344;52.374;4.816;2023-02-18T00:18:54;102105.0;;;10.89;100.0
37420;BME280;47344;52.374;4.816;2023-02-18T00:20:33;102105.0;;;10.92;100.0
37420;BME280;47344;52.374;4.816;2023-02-18T00:22:09;102109.0;;;10.96;100.0
37420;BME280;47344;52.374;4.816;2023-02-18T00:25:22;102111.0;;;10.86;100.0
37420;BME280;47344;52.374;4.816;2023-02-18T00:26:58;102108.0;;;10.95;100.0
37420;BME280;47344;52.374;4.816;2023-02-18T00:28:35;102105.0;;;11.02;100.0
37420;BME280;47344;52.374;4.816;2023-02-18T00:31:48;102097.0;;;10.92;100.0
37420;BME280;47344;52.374;4.816;2023-02-18T00:33:25;102100.0;;;11.07;100.0
37420;BME280;47344;52.374;4.816;2023-02-18T00:35:02;102099.0;;;11.04;100.0
37420;BME280;47344;52.374;4.816;2023-02-18T00:36:39;102095.0;;;10.98;100.0
37420;BME280;47344;52.374;4.816;2023-02-18T00:39:53;102090.0;;;10.89;100.0
37420;BME280;47344;52.374;4.816;2023-02-18T00:41:29;102092.0;;;10.93;100.0
37420;BME280;47344;52.374;4.816;2023-02-18T00:43:06;102081.0;;;10.96;100.0
37420;BME280;47344;52.374;4.816;2023-02-18T00:46:20;102080.0;;;11.0;100.0
37420;BME280;47344;52.374;4.816;2023-02-18T00:47:57;102089.0;;;11.02;100.0
37420;BME280;47344;52.374;4.816;2023-02-18T00:49:33;102088.0;;;10.85;100.0
37420;BME280;47344;52.374;4.816;2023-02-18T00:52:47;102086.0;;;10.82;100.0
37420;BME280;47344;52.374;4.816;2023-02-18T00:54:23;102092.0;;;10.87;100.0
37420;BME280;47344;52.374;4.816;2023-02-18T00:55:59;102091.0;;;10.72;100.0
37420;BME280;47344;52.374;4.816;2023-02-18T00:57:36;102080.0;;;10.74;100.0
37420;BME280;47344;52.374;4.816;2023-02-18T01:00:49;102083.0;;;10.68;100.0
37420;BME280;47344;52.374;4.816;2023-02-18T01:02:26;102084.0;;;10.71;100.0
37420;BME280;47344;52.374;4.816;2023-02-18T01:04:03;102086.0;;;10.72;100.0
37420;BME280;47344;52.374;4.816;2023-02-18T01:07:17;102090.0;;;10.76;100.0
37420;BME280;47344;52.374;4.816;2023-02-18T01:08:54;102076.0;;;10.7;100.0
37420;BME280;47344;52.374;4.816;2023-02-18T01:10:30;102086.0;;;10.74;100.0
37420;BME280;47344;52.374;4.816;2023-02-18T01:12:09;102073.0;;;10.69;100.0
37420;BME280;47344;52.374;4.816;2023-02-18T01:15:22;102071.0;;;10.63;100.0
37420;BME280;47344;52.374;4.816;2023-02-18T01:16:59;102055.0;;;10.66;100.0
37420;BME280;47344;52.374;4.816;2023-02-18T01:18:35;102055.0;;;10.66;100.0
37420;BME280;47344;52.374;4.816;2023-02-18T01:21:50;102051.0;;;10.76;100.0
37420;BME280;47344;52.374;4.816;2023-02-18T01:23:27;102051.0;;;10.72;100.0
37420;BME280;47344;52.374;4.816;2023-02-18T01:25:04;102047.0;;;10.7;100.0
37420;BME280;47344;52.374;4.816;2023-02-18T01:28:18;102048.0;;;10.7;100.0
37420;BME280;47344;52.374;4.816;2023-02-18T01:29:54;102048.0;;;10.69;100.0
37420;BME280;47344;52.374;4.816;2023-02-18T01:31:30;102050.0;;;10.66;100.0
37420;BME280;47344;52.374;4.816;2023-02-18T01:33:06;102049.0;;;10.65;100.0
37420;BME280;47344;52.374;4.816;2023-02-18T01:36:19;102048.0;;;10.64;100.0
37420;BME280;47344;52.374;4.816;2023-02-18T01:37:56;102044.0;;;10.7;100.0
37420;BME280;47344;52.374;4.816;2023-02-18T01:39:32;102048.0;;;10.66;100.0
37420;BME280;47344;52.374;4.816;2023-02-18T01:42:46;102041.0;;;10.75;100.0
37420;BME280;47344;52.374;4.816;2023-02-18T01:44:25;102028.0;;;10.77;100.0
37420;BME280;47344;52.374;4.816;2023-02-18T01:46:11;102030.0;;;10.67;100.0
37420;BME280;47344;52.374;4.816;2023-02-18T01:47:50;102030.0;;;10.59;100.0
37420;BME280;47344;52.374;4.816;2023-02-18T01:51:11;102030.0;;;10.7;100.0
37420;BME280;47344;52.374;4.816;2023-02-18T01:52:49;102018.0;;;10.58;100.0
37420;BME280;47344;52.374;4.816;2023-02-18T01:54:27;102016.0;;;10.69;100.0
37420;BME280;47344;52.374;4.816;2023-02-18T01:56:10;102011.0;;;10.65;100.0
37420;BME280;47344;52.374;4.816;2023-02-18T01:59:27;102010.0;;;10.66;100.0
37420;BME280;47344;52.374;4.816;2023-02-18T02:01:08;102005.0;;;10.65;100.0
37420;BME280;47344;52.374;4.816;2023-02-18T02:02:45;102005.0;;;10.57;100.0
37420;BME280;47344;52.374;4.816;2023-02-18T02:06:00;101998.0;;;10.56;100.0
37420;BME280;47344;52.374;4.816;2023-02-18T02:07:38;101991.0;;;10.59;100.0
37420;BME280;47344;52.374;4.816;2023-02-18T02:09:18;101986.0;;;10.59;100.0
37420;BME280;47344;52.374;4.816;2023-02-18T02:11:05;101980.0;;;10.7;100.0
37420;BME280;47344;52.374;4.816;2023-02-18T02:13:00;101966.0;;;10.63;100.0
37420;BME280;47344;52.374;4.816;2023-02-18T02:17:04;101962.0;;;10.73;100.0
37420;BME280;47344;52.374;4.816;2023-02-18T02:21:25;101955.0;;;10.7;100.0
37420;BME280;47344;52.374;4.816;2023-02-18T02:27:21;101940.0;;;10.77;100.0
37420;BME280;47344;52.374;4.816;2023-02-18T02:29:17;101941.0;;;10.87;100.0
37420;BME280;47344;52.374;4.816;2023-02-18T02:31:36;101932.0;;;10.8;100.0
37420;BME280;47344;52.374;4.816;2023-02-18T02:35:27;101914.0;;;10.86;100.0
37420;BME280;47344;52.374;4.816;2023-02-18T02:37:13;101910.0;;;10.85;100.0
37420;BME280;47344;52.374;4.816;2023-02-18T02:38:54;101905.0;;;10.88;100.0
37420;BME280;47344;52.374;4.816;2023-02-18T02:40:37;101909.0;;;10.86;100.0
37420;BME280;47344;52.374;4.816;2023-02-18T02:42:25;101905.0;;;10.89;100.0
37420;BME280;47344;52.374;4.816;2023-02-18T02:45:57;101907.0;;;10.96;100.0
37420;BME280;47344;52.374;4.816;2023-02-18T02:47:43;101905.0;;;11.07;100.0
37420;BME280;47344;52.374;4.816;2023-02-18T02:49:34;101900.0;;;11.08;100.0
37420;BME280;47344;52.374;4.816;2023-02-18T02:51:19;101898.0;;;11.07;100.0
37420;BME280;47344;52.374;4.816;2023-02-18T02:53:03;101892.0;;;11.15;100.0
37420;BME280;47344;52.374;4.816;2023-02-18T02:54:41;101898.0;;;11.09;100.0
37420;BME280;47344;52.374;4.816;2023-02-18T02:57:57;101883.0;;;11.06;100.0
37420;BME280;47344;52.374;4.816;2023-02-18T02:59:35;101886.0;;;11.16;100.0
37420;BME280;47344;52.374;4.816;2023-02-18T03:01:21;101885.0;;;11.08;100.0
37420;BME280;47344;52.374;4.816;2023-02-18T03:03:23;101880.0;;;11.13;100.0
37420;BME280;47344;52.374;4.816;2023-02-18T03:05:24;101881.0;;;11.18;100.0
37420;BME280;47344;52.374;4.816;2023-02-18T03:09:14;101883.0;;;11.11;100.0
37420;BME280;47344;52.374;4.816;2023-02-18T03:11:01;101861.0;;;11.14;100.0
37420;BME280;47344;52.374;4.816;2023-02-18T03:12:45;101865.0;;;11.12;100.0
37420;BME280;47344;52.374;4.816;2023-02-18T03:14:28;101866.0;;;11.17;100.0
37420;BME280;47344;52.374;4.816;2023-02-18T03:16:12;101859.0;;;11.13;100.0
37420;BME280;47344;52.374;4.816;2023-02-18T03:17:59;101845.0;;;11.2;100.0
37420;BME280;47344;52.374;4.816;2023-02-18T03:21:24;101847.0;;;11.16;100.0
37420;BME280;47344;52.374;4.816;2023-02-18T03:23:07;101836.0;;;11.23;100.0
37420;BME280;47344;52.374;4.816;2023-02-18T03:24:54;101832.0;;;11.2;100.0
37420;BME280;47344;52.374;4.816;2023-02-18T03:26:35;101810.0;;;11.21;100.0
37420;BME280;47344;52.374;4.816;2023-02-18T03:28:16;101821.0;;;11.3;100.0
37420;BME280;47344;52.374;4.816;2023-02-18T03:31:39;101817.0;;;11.28;100.0
37420;BME280;47344;52.374;4.816;2023-02-18T03:33:23;101820.0;;;11.27;100.0
37420;BME280;47344;52.374;4.816;2023-02-18T03:35:15;101812.0;;;11.29;100.0
37420;BME280;47344;52.374;4.816;2023-02-18T03:36:52;101805.0;;;11.3;100.0
37420;BME280;47344;52.374;4.816;2023-02-18T03:40:12;101796.0;;;11.26;100.0
37420;BME280;47344;52.374;4.816;2023-02-18T03:41:50;101798.0;;;11.39;100.0
37420;BME280;47344;52.374;4.816;2023-02-18T03:43:27;101786.0;;;11.31;100.0
37420;BME280;47344;52.374;4.816;2023-02-18T03:45:04;101782.0;;;11.25;100.0
37420;BME280;47344;52.374;4.816;2023-02-18T03:48:20;101786.0;;;11.26;100.0
37420;BME280;47344;52.374;4.816;2023-02-18T03:49:56;101772.0;;;11.21;100.0
37420;BME280;47344;52.374;4.816;2023-02-18T03:51:32;101775.0;;;11.17;100.0
37420;BME280;47344;52.374;4.816;2023-02-18T03:54:44;101768.0;;;11.25;100.0
37420;BME280;47344;52.374;4.816;2023-02-18T03:56:21;101780.0;;;11.24;100.0
37420;BME280;47344;52.374;4.816;2023-02-18T03:57:57;101761.0;;;11.19;100.0
37420;BME280;47344;52.374;4.816;2023-02-18T03:59:34;101771.0;;;11.14;100.0
37420;BME280;47344;52.374;4.816;2023-02-18T04:02:46;101755.0;;;11.18;100.0
37420;BME280;47344;52.374;4.816;2023-02-18T04:04:22;101765.0;;;11.18;100.0
37420;BME280;47344;52.374;4.816;2023-02-18T04:05:58;101763.0;;;11.1;100.0
37420;BME280;47344;52.374;4.816;2023-02-18T04:09:11;101765.0;;;11.02;100.0
37420;BME280;47344;52.374;4.816;2023-02-18T04:10:49;101761.0;;;10.99;100.0
37420;BME280;47344;52.374;4.816;2023-02-18T04:12:26;101761.0;;;10.99;100.0
37420;BME280;47344;52.374;4.816;2023-02-18T04:15:39;101752.0;;;10.97;100.0
37420;BME280;47344;52.374;4.816;2023-02-18T04:17:15;101758.0;;;10.98;100.0
37420;BME280;47344;52.374;4.816;2023-02-18T04:18:51;101755.0;;;10.9;100.0
37420;BME280;47344;52.374;4.816;2023-02-18T04:20:27;101756.0;;;10.92;100.0
37420;BME280;47344;52.374;4.816;2023-02-18T04:23:40;101762.0;;;10.93;100.0
37420;BME280;47344;52.374;4.816;2023-02-18T04:25:17;101747.0;;;10.89;100.0
37420;BME280;47344;52.374;4.816;2023-02-18T04:26:54;101742.0;;;10.86;100.0
37420;BME280;47344;52.374;4.816;2023-02-18T04:30:07;101738.0;;;10.81;100.0
37420;BME280;47344;52.374;4.816;2023-02-18T04:31:43;101744.0;;;10.85;100.0
37420;BME280;47344;52.374;4.816;2023-02-18T04:33:19;101730.0;;;10.8;100.0
37420;BME280;47344;52.374;4.816;2023-02-18T04:36:32;101725.0;;;10.8;100.0
37420;BME280;47344;52.374;4.816;2023-02-18T04:38:08;101722.0;;;10.78;100.0
37420;BME280;47344;52.374;4.816;2023-02-18T04:39:46;101712.0;;;10.73;100.0
37420;BME280;47344;52.374;4.816;2023-02-18T04:41:22;101719.0;;;10.78;100.0
37420;BME280;47344;52.374;4.816;2023-02-18T04:44:36;101721.0;;;10.76;100.0
37420;BME280;47344;52.374;4.816;2023-02-18T04:46:12;101721.0;;;10.83;100.0
37420;BME280;47344;52.374;4.816;2023-02-18T04:47:48;101713.0;;;10.84;100.0
37420;BME280;47344;52.374;4.816;2023-02-18T04:51:01;101723.0;;;10.8;100.0
37420;BME280;47344;52.374;4.816;2023-02-18T04:52:38;101721.0;;;10.82;100.0
37420;BME280;47344;52.374;4.816;2023-02-18T04:54:15;101714.0;;;10.77;100.0
37420;BME280;47344;52.374;4.816;2023-02-18T04:57:29;101718.0;;;10.86;100.0
37420;BME280;47344;52.374;4.816;2023-02-18T04:59:05;101712.0;;;10.84;100.0
37420;BME280;47344;52.374;4.816;2023-02-18T05:00:41;101710.0;;;10.84;100.0
37420;BME280;47344;52.374;4.816;2023-02-18T05:02:17;101705.0;;;10.85;100.0
37420;BME280;47344;52.374;4.816;2023-02-18T05:05:30;101697.0;;;10.83;100.0
37420;BME280;47344;52.374;4.816;2023-02-18T05:07:06;101690.0;;;10.81;100.0
37420;BME280;47344;52.374;4.816;2023-02-18T05:08:42;101684.0;;;10.91;100.0
37420;BME280;47344;52.374;4.816;2023-02-18T05:11:54;101697.0;;;10.79;100.0
37420;BME280;47344;52.374;4.816;2023-02-18T05:13:30;101686.0;;;10.8;100.0
37420;BME280;47344;52.374;4.816;2023-02-18T05:15:07;101685.0;;;10.83;100.0
37420;BME280;47344;52.374;4.816;2023-02-18T05:18:20;101688.0;;;10.8;100.0
37420;BME280;47344;52.374;4.816;2023-02-18T05:19:57;101682.0;;;10.81;100.0
37420;BME280;47344;52.374;4.816;2023-02-18T05:21:33;101680.0;;;10.86;100.0
37420;BME280;47344;52.374;4.816;2023-02-18T05:23:09;101680.0;;;10.82;100.0
37420;BME280;47344;52.374;4.816;2023-02-18T05:26:21;101685.0;;;10.82;100.0
37420;BME280;47344;52.374;4.816;2023-02-18T05:27:58;101682.0;;;10.78;100.0
37420;BME280;47344;52.374;4.816;2023-02-18T05:29:34;101689.0;;;10.84;100.0
37420;BME280;47344;52.374;4.816;2023-02-18T05:32:47;101676.0;;;10.77;100.0
37420;BME280;47344;52.374;4.816;2023-02-18T05:34:23;101686.0;;;10.78;100.0
37420;BME280;47344;52.374;4.816;2023-02-18T05:35:59;101689.0;;;10.86;100.0
37420;BME280;47344;52.374;4.816;2023-02-18T05:39:11;101691.0;;;10.85;100.0
37420;BME280;47344;52.374;4.816;2023-02-18T05:40:47;101686.0;;;10.86;100.0
37420;BME280;47344;52.374;4.816;2023-02-18T05:42:23;101665.0;;;10.83;100.0
37420;BME280;47344;52.374;4.816;2023-02-18T05:46:08;101673.0;;;10.88;100.0
37420;BME280;47344;52.374;4.816;2023-02-18T05:49:21;101664.0;;;10.92;100.0
37420;BME280;47344;52.374;4.816;2023-02-18T05:50:57;101668.0;;;10.92;100.0
37420;BME280;47344;52.374;4.816;2023-02-18T05:52:34;101669.0;;;10.81;100.0
37420;BME280;47344;52.374;4.816;2023-02-18T05:55:46;101669.0;;;10.85;100.0
37420;BME280;47344;52.374;4.816;2023-02-18T05:57:22;101672.0;;;10.89;100.0
37420;BME280;47344;52.374;4.816;2023-02-18T05:58:59;101662.0;;;10.89;100.0
37420;BME280;47344;52.374;4.816;2023-02-18T06:02:12;101662.0;;;10.89;100.0
37420;BME280;47344;52.374;4.816;2023-02-18T06:03:48;101662.0;;;10.91;100.0
37420;BME280;47344;52.374;4.816;2023-02-18T06:05:24;101668.0;;;10.89;100.0
37420;BME280;47344;52.374;4.816;2023-02-18T06:08:36;101672.0;;;10.9;100.0
37420;BME280;47344;52.374;4.816;2023-02-18T06:10:13;101661.0;;;10.9;100.0
37420;BME280;47344;52.374;4.816;2023-02-18T06:11:49;101669.0;;;10.86;100.0
37420;BME280;47344;52.374;4.816;2023-02-18T06:13:25;101669.0;;;10.78;100.0
37420;BME280;47344;52.374;4.816;2023-02-18T06:16:37;101665.0;;;10.76;100.0
37420;BME280;47344;52.374;4.816;2023-02-18T06:18:13;101660.0;;;10.77;100.0
37420;BME280;47344;52.374;4.816;2023-02-18T06:19:49;101663.0;;;10.78;100.0
37420;BME280;47344;52.374;4.816;2023-02-18T06:23:01;101653.0;;;10.8;100.0
37420;BME280;47344;52.374;4.816;2023-02-18T06:24:38;101656.0;;;10.71;100.0
37420;BME280;47344;52.374;4.816;2023-02-18T06:26:14;101637.0;;;10.71;100.0
37420;BME280;47344;52.374;4.816;2023-02-18T06:29:28;101658.0;;;10.75;100.0
37420;BME280;47344;52.374;4.816;2023-02-18T06:31:05;101652.0;;;10.77;100.0
37420;BME280;47344;52.374;4.816;2023-02-18T06:32:42;101659.0;;;10.7;100.0
37420;BME280;47344;52.374;4.816;2023-02-18T06:34:18;101660.0;;;10.67;100.0
37420;BME280;47344;52.374;4.816;2023-02-18T06:37:33;101653.0;;;10.7;100.0
37420;BME280;47344;52.374;4.816;2023-02-18T06:39:09;101657.0;;;10.75;100.0
37420;BME280;47344;52.374;4.816;2023-02-18T06:40:45;101652.0;;;10.73;100.0
37420;BME280;47344;52.374;4.816;2023-02-18T06:43:58;101657.0;;;10.78;100.0
37420;BME280;47344;52.374;4.816;2023-02-18T06:45:37;101656.0;;;10.83;100.0
37420;BME280;47344;52.374;4.816;2023-02-18T06:47:13;101651.0;;;10.87;100.0
37420;BME280;47344;52.374;4.816;2023-02-18T06:50:27;101650.0;;;10.79;100.0
37420;BME280;47344;52.374;4.816;2023-02-18T06:52:03;101651.0;;;10.8;100.0
37420;BME280;47344;52.374;4.816;2023-02-18T06:53:40;101626.0;;;10.72;100.0
37420;BME280;47344;52.374;4.816;2023-02-18T06:55:16;101635.0;;;10.73;100.0
37420;BME280;47344;52.374;4.816;2023-02-18T06:58:29;101639.0;;;10.73;100.0
37420;BME280;47344;52.374;4.816;2023-02-18T07:00:06;101631.0;;;10.66;100.0
37420;BME280;47344;52.374;4.816;2023-02-18T07:01:43;101642.0;;;10.6;100.0
37420;BME280;47344;52.374;4.816;2023-02-18T07:04:55;101642.0;;;10.6;100.0
37420;BME280;47344;52.374;4.816;2023-02-18T07:06:31;101645.0;;;10.49;100.0
37420;BME280;47344;52.374;4.816;2023-02-18T07:08:08;101649.0;;;10.44;100.0
37420;BME280;47344;52.374;4.816;2023-02-18T07:11:21;101633.0;;;10.44;100.0
37420;BME280;47344;52.374;4.816;2023-02-18T07:12:57;101633.0;;;10.42;100.0
37420;BME280;47344;52.374;4.816;2023-02-18T07:14:34;101641.0;;;10.44;100.0
37420;BME280;47344;52.374;4.816;2023-02-18T07:16:10;101626.0;;;10.38;100.0
37420;BME280;47344;52.374;4.816;2023-02-18T07:19:22;101624.0;;;10.37;100.0
37420;BME280;47344;52.374;4.816;2023-02-18T07:20:58;101623.0;;;10.4;100.0
37420;BME280;47344;52.374;4.816;2023-02-18T07:22:34;101635.0;;;10.39;100.0
37420;BME280;47344;52.374;4.816;2023-02-18T07:25:47;101639.0;;;10.43;100.0
37420;BME280;47344;52.374;4.816;2023-02-18T07:27:23;101635.0;;;10.43;100.0
37420;BME280;47344;52.374;4.816;2023-02-18T07:29:00;101643.0;;;10.33;100.0
37420;BME280;47344;52.374;4.816;2023-02-18T07:32:14;101639.0;;;10.35;100.0
37420;BME280;47344;52.374;4.816;2023-02-18T07:33:52;101631.0;;;10.35;100.0
37420;BME280;47344;52.374;4.816;2023-02-18T07:35:29;101641.0;;;10.39;100.0
37420;BME280;47344;52.374;4.816;2023-02-18T07:37:08;101637.0;;;10.32;100.0
37420;BME280;47344;52.374;4.816;2023-02-18T07:40:21;101639.0;;;10.28;100.0
37420;BME280;47344;52.374;4.816;2023-02-18T07:41:57;101636.0;;;10.27;100.0
37420;BME280;47344;52.374;4.816;2023-02-18T07:43:33;101639.0;;;10.23;100.0
37420;BME280;47344;52.374;4.816;2023-02-18T07:46:46;101635.0;;;10.23;100.0
37420;BME280;47344;52.374;4.816;2023-02-18T07:48:22;101643.0;;;10.23;100.0
37420;BME280;47344;52.374;4.816;2023-02-18T07:49:58;101649.0;;;10.15;100.0
37420;BME280;47344;52.374;4.816;2023-02-18T07:53:12;101648.0;;;10.22;100.0
37420;BME280;47344;52.374;4.816;2023-02-18T07:54:50;101643.0;;;10.08;100.0
37420;BME280;47344;52.374;4.816;2023-02-18T07:56:26;101651.0;;;10.03;100.0
37420;BME280;47344;52.374;4.816;2023-02-18T07:58:02;101653.0;;;9.94;100.0
37420;BME280;47344;52.374;4.816;2023-02-18T08:01:15;101643.0;;;10.02;100.0
37420;BME280;47344;52.374;4.816;2023-02-18T08:02:51;101650.0;;;9.99;100.0
37420;BME280;47344;52.374;4.816;2023-02-18T08:04:27;101659.0;;;10.01;100.0
37420;BME280;47344;52.374;4.816;2023-02-18T08:09:17;101651.0;;;10.03;100.0
37420;BME280;47344;52.374;4.816;2023-02-18T08:10:56;101659.0;;;10.06;100.0
37420;BME280;47344;52.374;4.816;2023-02-18T08:14:11;101644.0;;;10.08;100.0
37420;BME280;47344;52.374;4.816;2023-02-18T08:15:47;101647.0;;;10.1;100.0
37420;BME280;47344;52.374;4.816;2023-02-18T08:17:23;101657.0;;;10.11;100.0
37420;BME280;47344;52.374;4.816;2023-02-18T08:19:01;101644.0;;;10.09;100.0
37420;BME280;47344;52.374;4.816;2023-02-18T08:22:15;101637.0;;;10.07;100.0
37420;BME280;47344;52.374;4.816;2023-02-18T08:23:51;101647.0;;;10.14;100.0
37420;BME280;47344;52.374;4.816;2023-02-18T08:25:28;101655.0;;;10.13;100.0
37420;BME280;47344;52.374;4.816;2023-02-18T08:28:41;101645.0;;;10.19;100.0
37420;BME280;47344;52.374;4.816;2023-02-18T08:30:18;101659.0;;;10.18;100.0
37420;BME280;47344;52.374;4.816;2023-02-18T08:31:56;101659.0;;;10.23;100.0
37420;BME280;47344;52.374;4.816;2023-02-18T08:33:32;101666.0;;;10.27;100.0
37420;BME280;47344;52.374;4.816;2023-02-18T08:36:46;101660.0;;;10.26;100.0
37420;BME280;47344;52.374;4.816;2023-02-18T08:38:23;101659.0;;;10.25;100.0
37420;BME280;47344;52.374;4.816;2023-02-18T08:40:00;101649.0;;;10.29;100.0
37420;BME280;47344;52.374;4.816;2023-02-18T08:43:13;101652.0;;;10.29;100.0
37420;BME280;47344;52.374;4.816;2023-02-18T08:44:51;101637.0;;;10.38;100.0
37420;BME280;47344;52.374;4.816;2023-02-18T08:46:27;101659.0;;;10.42;100.0
37420;BME280;47344;52.374;4.816;2023-02-18T08:49:40;101661.0;;;10.48;100.0
37420;BME280;47344;52.374;4.816;2023-02-18T08:51:20;101652.0;;;10.48;100.0
37420;BME280;47344;52.374;4.816;2023-02-18T08:52:59;101647.0;;;10.46;100.0
37420;BME280;47344;52.374;4.816;2023-02-18T08:54:37;101655.0;;;10.49;100.0
37420;BME280;47344;52.374;4.816;2023-02-18T08:57:51;101661.0;;;10.45;100.0
37420;BME280;47344;52.374;4.816;2023-02-18T08:59:27;101662.0;;;10.51;100.0
37420;BME280;47344;52.374;4.816;2023-02-18T09:01:05;101662.0;;;10.63;100.0
37420;BME280;47344;52.374;4.816;2023-02-18T09:04:20;101668.0;;;10.64;100.0
37420;BME280;47344;52.374;4.816;2023-02-18T09:05:57;101672.0;;;10.64;100.0
37420;BME280;47344;52.374;4.816;2023-02-18T09:07:35;101676.0;;;10.66;100.0
37420;BME280;47344;52.374;4.816;2023-02-18T09:09:12;101663.0;;;10.7;100.0
37420;BME280;47344;52.374;4.816;2023-02-18T09:12:24;101678.0;;;10.62;100.0
37420;BME280;47344;52.374;4.816;2023-02-18T09:14:02;101681.0;;;10.68;100.0
37420;BME280;47344;52.374;4.816;2023-02-18T09:15:38;101665.0;;;10.66;100.0
37420;BME280;47344;52.374;4.816;2023-02-18T09:18:50;101672.0;;;10.65;100.0
37420;BME280;47344;52.374;4.816;2023-02-18T09:20:27;101683.0;;;10.7;100.0
37420;BME280;47344;52.374;4.816;2023-02-18T09:22:03;101700.0;;;10.68;100.0
37420;BME280;47344;52.374;4.816;2023-02-18T09:25:15;101687.0;;;10.75;100.0
37420;BME280;47344;52.374;4.816;2023-02-18T09:26:51;101684.0;;;10.79;100.0
37420;BME280;47344;52.374;4.816;2023-02-18T09:28:27;101692.0;;;10.88;100.0
37420;BME280;47344;52.374;4.816;2023-02-18T09:30:06;101699.0;;;10.88;100.0
37420;BME280;47344;52.374;4.816;2023-02-18T09:33:19;101691.0;;;10.91;100.0
37420;BME280;47344;52.374;4.816;2023-02-18T09:34:55;101705.0;;;10.8;100.0
37420;BME280;47344;52.374;4.816;2023-02-18T09:36:31;101701.0;;;10.83;100.0
37420;BME280;47344;52.374;4.816;2023-02-18T09:39:48;101705.0;;;10.83;100.0
37420;BME280;47344;52.374;4.816;2023-02-18T09:41:36;101718.0;;;10.86;100.0
37420;BME280;47344;52.374;4.816;2023-02-18T09:43:22;101711.0;;;10.88;100.0
37420;BME280;47344;52.374;4.816;2023-02-18T09:45:09;101712.0;;;10.87;100.0
37420;BME280;47344;52.374;4.816;2023-02-18T09:46:51;101726.0;;;10.96;100.0
37420;BME280;47344;52.374;4.816;2023-02-18T09:50:15;101720.0;;;10.95;100.0
37420;BME280;47344;52.374;4.816;2023-02-18T09:52:03;101724.0;;;10.83;100.0
37420;BME280;47344;52.374;4.816;2023-02-18T09:53:42;101722.0;;;10.85;100.0
37420;BME280;47344;52.374;4.816;2023-02-18T09:55:22;101713.0;;;10.91;100.0
37420;BME280;47344;52.374;4.816;2023-02-18T09:58:38;101716.0;;;10.9;100.0
37420;BME280;47344;52.374;4.816;2023-02-18T10:00:18;101712.0;;;10.82;100.0
37420;BME280;47344;52.374;4.816;2023-02-18T10:01:59;101706.0;;;10.89;100.0
37420;BME280;47344;52.374;4.816;2023-02-18T10:03:36;101717.0;;;10.92;100.0
37420;BME280;47344;52.374;4.816;2023-02-18T10:06:51;101713.0;;;10.94;100.0
37420;BME280;47344;52.374;4.816;2023-02-18T10:08:32;101723.0;;;11.13;100.0
37420;BME280;47344;52.374;4.816;2023-02-18T10:10:18;101727.0;;;11.23;100.0
37420;BME280;47344;52.374;4.816;2023-02-18T10:11:57;101726.0;;;11.19;100.0
37420;BME280;47344;52.374;4.816;2023-02-18T10:15:20;101728.0;;;11.17;100.0
37420;BME280;47344;52.374;4.816;2023-02-18T10:16:58;101736.0;;;11.17;100.0
37420;BME280;47344;52.374;4.816;2023-02-18T10:18:40;101727.0;;;11.16;100.0
37420;BME280;47344;52.374;4.816;2023-02-18T10:20:20;101715.0;;;11.22;100.0
37420;BME280;47344;52.374;4.816;2023-02-18T10:23:45;101736.0;;;11.3;100.0
37420;BME280;47344;52.374;4.816;2023-02-18T10:25:30;101726.0;;;11.25;100.0
37420;BME280;47344;52.374;4.816;2023-02-18T10:27:17;101728.0;;;11.41;100.0
37420;BME280;47344;52.374;4.816;2023-02-18T10:28:59;101732.0;;;11.45;100.0
37420;BME280;47344;52.374;4.816;2023-02-18T10:32:22;101744.0;;;11.46;100.0
37420;BME280;47344;52.374;4.816;2023-02-18T10:34:03;101744.0;;;11.53;100.0
37420;BME280;47344;52.374;4.816;2023-02-18T10:35:49;101742.0;;;11.58;100.0
37420;BME280;47344;52.374;4.816;2023-02-18T10:37:44;101747.0;;;11.51;100.0
37420;BME280;47344;52.374;4.816;2023-02-18T10:39:40;101749.0;;;11.42;100.0
37420;BME280;47344;52.374;4.816;2023-02-18T10:41:25;101743.0;;;11.37;100.0
37420;BME280;47344;52.374;4.816;2023-02-18T10:45:06;101755.0;;;11.39;100.0
37420;BME280;47344;52.374;4.816;2023-02-18T10:46:49;101745.0;;;11.42;100.0
37420;BME280;47344;52.374;4.816;2023-02-18T10:48:50;101766.0;;;11.4;100.0
37420;BME280;47344;52.374;4.816;2023-02-18T10:50:36;101768.0;;;11.42;100.0
37420;BME280;47344;52.374;4.816;2023-02-18T10:52:16;101756.0;;;11.45;100.0
37420;BME280;47344;52.374;4.816;2023-02-18T10:53:54;101762.0;;;11.39;100.0
37420;BME280;47344;52.374;4.816;2023-02-18T10:57:17;101758.0;;;11.31;100.0
37420;BME280;47344;52.374;4.816;2023-02-18T10:59:00;101750.0;;;11.36;100.0
37420;BME280;47344;52.374;4.816;2023-02-18T11:00:40;101762.0;;;11.31;100.0
37420;BME280;47344;52.374;4.816;2023-02-18T11:02:17;101756.0;;;11.32;100.0
37420;BME280;47344;52.374;4.816;2023-02-18T11:05:43;101767.0;;;11.16;100.0
37420;BME280;47344;52.374;4.816;2023-02-18T11:07:23;101765.0;;;11.3;100.0
37420;BME280;47344;52.374;4.816;2023-02-18T11:09:01;101744.0;;;11.33;100.0
37420;BME280;47344;52.374;4.816;2023-02-18T11:10:40;101770.0;;;11.31;100.0
37420;BME280;47344;52.374;4.816;2023-02-18T11:14:00;101766.0;;;11.4;100.0
37420;BME280;47344;52.374;4.816;2023-02-18T11:15:53;101758.0;;;11.31;100.0
37420;BME280;47344;52.374;4.816;2023-02-18T11:17:32;101764.0;;;11.33;100.0
37420;BME280;47344;52.374;4.816;2023-02-18T11:19:31;101762.0;;;11.38;100.0